Bucureşti, România

10:13 AM EET on decembrie 04, 2016 (GMT +0200)
Vergului | | Change Station

Elev 266 ft 44.44 °N, 26.17 °E | Updated 3 seconds ago

Clear
Cer senin
41.4 °F
Feels Like 41 °F
N
2.9
Vânt variabil Vânt from NNE
Gusts 4.9 mph

astăzi
High -- | Low -- °F
--% Chance of Precip.
Ieri
High -- | Low -- °F
Precip. -- inch
Presiunea 30.42 inch
Vizibilitatea -9999.0 mile
Nori
Vânt rece 41 °F
Punctul de rouă 22 °F
Umiditatea 45%
Precipitaţii 0.00 inch
Adâncimea zăpezii Not available.
7:35 AM 4:36 PM
Semilună în creştere, 21% visible
METAR LRBS 040800Z AUTO 28003KT NCD M00/M04 Q1030 NOSIG
Presiunea 30.42 inch
Vizibilitatea -9999.0 mile
Nori
Vânt rece 41 °F
Punctul de rouă 22 °F
Umiditatea 45%
Precipitaţii 0.00 inch
Adâncimea zăpezii Not available.
7:35 AM 4:36 PM
Semilună în creştere, 21% visible
METAR LRBS 040800Z AUTO 28003KT NCD M00/M04 Q1030 NOSIG

10-Day Weather Forecast

×

Almanac

Astronomie

Dec. 04, 2016 Răsărit Apus
Timpul Actual
Crepusculul Civil
Crepusculul nautic
Răsărit Astronomic
Luna
Durata zilei lumină
Lungimea zilei
Tomorrow will be .
, % of the Moon is Illuminated

Extremele de azi

Country Highs Country Lows

Community

WunderPhotos

Upload Photos

1,955,587 photos uploaded!

WunderBlog® & News

Nearby

Calitatea aerului

  Calitatea aerului Index de calitate a aerului Poluat
Not available.

Adâncimea zapezii

Station Depth Elevation

Earthquake Activity

Oraş Distance Mag. Time & Date
Minimum magnitude displayed is 2.5.

Coastal Water Temperatures

Locul Temperatura

Stations

Nearby Weather Stations

Locaţia staţiei Temp Vânt rece Punctul de rouă Umiditatea Vânt Precip. Elev Actualizare Type